Time;durP1;ratioP1;P1;durP2;ratioP2;P2;SDS_P1;SDS_P2;PMS_P1;PMS_P2;Temp;Humidity;BMP_temperature;BMP_pressure;BME280_temperature;BME280_humidity;BME280_pressure;Samples;Min_cycle;Max_cycle;Signal;HPM_P1;HPM_P2
2022/10/11 00:01:03;;;;;;;8.15;1.88;;;7.40;99.90;;;;;;5093913;28;20556;-79
2022/10/11 00:03:28;;;;;;;9.50;1.88;;;7.40;99.90;;;;;;5093476;28;20068;-79
2022/10/11 00:05:54;;;;;;;9.45;1.92;;;7.30;99.90;;;;;;5093511;28;20040;-78
2022/10/11 00:08:19;;;;;;;9.90;1.70;;;7.40;99.90;;;;;;5093403;28;20039;-78
2022/10/11 00:10:55;;;;;;;8.65;1.77;;;7.40;99.90;;;;;;5093339;28;20036;-78
2022/10/11 00:13:20;;;;;;;10.95;1.80;;;7.30;99.90;;;;;;5093099;28;20521;-77
2022/10/11 00:15:46;;;;;;;12.43;2.28;;;7.30;99.90;;;;;;5076312;28;20028;-79
2022/10/11 00:18:11;;;;;;;8.88;2.63;;;7.30;99.90;;;;;;5093170;28;20085;-78
2022/10/11 00:20:37;;;;;;;7.78;1.98;;;7.20;99.90;;;;;;5093267;28;20088;-78
2022/10/11 00:23:02;;;;;;;6.88;2.20;;;7.30;99.90;;;;;;5092719;28;20042;-79
2022/10/11 00:25:28;;;;;;;8.27;1.50;;;7.20;99.90;;;;;;5093324;28;20044;-79
2022/10/11 00:27:53;;;;;;;9.18;1.83;;;7.20;99.90;;;;;;5093222;28;20508;-79
2022/10/11 00:30:19;;;;;;;12.30;2.13;;;7.20;99.90;;;;;;5093233;28;20521;-78
2022/10/11 00:32:44;;;;;;;12.40;2.15;;;7.20;99.90;;;;;;5092517;28;20066;-79
2022/10/11 00:35:10;;;;;;;14.95;1.95;;;7.20;99.90;;;;;;5092950;28;20036;-79
2022/10/11 00:37:37;;;;;;;7.18;1.55;;;7.20;99.90;;;;;;5093095;28;20028;-78
2022/10/11 00:40:07;;;;;;;8.45;1.92;;;7.10;99.90;;;;;;5092900;28;20036;-79
2022/10/11 00:42:33;;;;;;;7.00;1.90;;;7.10;99.90;;;;;;5092082;28;20062;-79
2022/10/11 00:45:27;;;;;;;11.25;2.00;;;7.10;99.90;;;;;;5092702;28;20560;-79
2022/10/11 00:48:08;;;;;;;10.73;2.28;;;7.10;99.90;;;;;;5092402;28;20071;-78
2022/10/11 00:50:35;;;;;;;6.90;1.77;;;7.10;99.90;;;;;;5092298;28;20068;-77
2022/10/11 00:53:06;;;;;;;9.00;1.70;;;7.00;99.90;;;;;;5092017;28;20118;-79
2022/10/11 00:55:38;;;;;;;6.90;2.00;;;7.10;99.90;;;;;;5091978;28;20051;-78
2022/10/11 00:58:05;;;;;;;9.65;1.73;;;7.00;99.90;;;;;;5106403;28;20035;-78
2022/10/11 01:00:31;;;;;;;10.13;1.80;;;7.00;99.90;;;;;;5092346;28;20396;-78
2022/10/11 01:02:58;;;;;;;6.82;2.00;;;7.00;99.90;;;;;;5092309;28;20047;-78
2022/10/11 01:05:24;;;;;;;9.65;1.90;;;7.00;99.90;;;;;;5075718;28;20051;-78
2022/10/11 01:07:49;;;;;;;12.82;1.70;;;7.00;99.90;;;;;;5092029;28;20487;-78
2022/10/11 01:10:15;;;;;;;9.65;2.42;;;7.00;99.90;;;;;;5091806;28;20128;-78
2022/10/11 01:13:12;;;;;;;8.75;1.95;;;7.00;99.90;;;;;;5091821;28;20047;-79
2022/10/11 01:16:06;;;;;;;10.18;2.15;;;7.00;99.90;;;;;;5091822;28;20040;-79
2022/10/11 01:18:46;;;;;;;9.68;1.98;;;6.90;99.90;;;;;;5071960;28;20119;-78
2022/10/11 01:21:19;;;;;;;9.88;1.73;;;6.90;99.90;;;;;;5091731;28;20255;-78
2022/10/11 01:23:59;;;;;;;11.40;2.30;;;6.90;99.90;;;;;;5091331;28;20044;-78
2022/10/11 01:26:46;;;;;;;7.97;1.73;;;6.90;99.90;;;;;;5091436;28;20036;-78
2022/10/11 01:29:29;;;;;;;7.80;1.48;;;6.90;99.90;;;;;;5091350;28;20044;-78
2022/10/11 01:32:14;;;;;;;10.25;2.05;;;6.80;99.90;;;;;;5091203;28;20063;-78
2022/10/11 01:34:45;;;;;;;7.68;1.80;;;6.80;99.90;;;;;;5091397;28;20124;-78
2022/10/11 01:37:25;;;;;;;6.82;1.63;;;6.80;99.90;;;;;;5074258;28;20046;-78
2022/10/11 01:39:58;;;;;;;5.43;1.67;;;6.80;99.90;;;;;;5091271;28;20036;-78
2022/10/11 01:42:24;;;;;;;8.32;1.33;;;6.80;99.90;;;;;;5074280;28;20040;-78
2022/10/11 01:44:50;;;;;;;6.40;1.90;;;6.70;99.90;;;;;;5091595;28;20556;-78
2022/10/11 01:47:21;;;;;;;11.65;2.33;;;6.70;99.90;;;;;;5091838;28;20040;-78
2022/10/11 01:49:59;;;;;;;8.80;1.88;;;6.80;99.90;;;;;;5091452;28;20398;-78
2022/10/11 01:52:27;;;;;;;8.60;2.22;;;6.70;99.90;;;;;;5091071;28;20122;-77
2022/10/11 01:55:24;;;;;;;8.90;1.95;;;6.80;99.90;;;;;;5091176;28;20405;-78
2022/10/11 01:58:08;;;;;;;12.02;2.42;;;6.70;99.90;;;;;;5103551;28;20039;-78
2022/10/11 02:00:43;;;;;;;;;;;6.70;99.90;;;;;;5074454;28;20028;-78
2022/10/11 02:03:31;;;;;;;8.38;1.48;;;6.70;99.90;;;;;;5090691;28;19922;-78
2022/10/11 02:06:08;;;;;;;6.60;1.50;;;6.70;99.90;;;;;;5090964;28;20039;-78
2022/10/11 02:09:13;;;;;;;8.65;1.77;;;6.70;99.90;;;;;;5090743;28;20043;-78
2022/10/11 02:11:39;;;;;;;5.78;1.75;;;6.60;99.90;;;;;;5090440;28;20535;-78
2022/10/11 02:14:17;;;;;;;8.65;1.95;;;6.60;99.90;;;;;;5073555;28;20127;-77
2022/10/11 02:16:48;;;;;;;7.95;1.60;;;6.50;99.90;;;;;;5073741;28;20072;-78
2022/10/11 02:19:17;;;;;;;9.60;1.90;;;6.50;99.90;;;;;;5090865;28;20036;-78
2022/10/11 02:21:48;;;;;;;7.63;1.67;;;6.50;99.90;;;;;;5090232;28;20040;-78
2022/10/11 02:24:20;;;;;;;7.15;1.60;;;6.50;99.90;;;;;;5073706;28;20040;-78
2022/10/11 02:26:51;;;;;;;7.28;2.13;;;6.50;99.90;;;;;;5090883;28;20044;-78
2022/10/11 02:29:18;;;;;;;13.63;1.83;;;6.50;99.90;;;;;;5090475;28;20047;-77
2022/10/11 02:31:45;;;;;;;11.02;1.65;;;6.50;99.90;;;;;;5090295;28;20105;-78
2022/10/11 02:34:19;;;;;;;9.13;1.73;;;6.40;99.90;;;;;;5090249;28;20082;-78
2022/10/11 02:36:51;;;;;;;;;;;6.40;99.90;;;;;;5091065;28;20454;-78
2022/10/11 02:39:24;;;;;;;10.15;1.50;;;6.40;99.90;;;;;;5090261;28;19923;-78
2022/10/11 02:41:55;;;;;;;10.50;1.88;;;6.40;99.90;;;;;;5090335;28;20040;-78
2022/10/11 02:44:31;;;;;;;6.45;1.38;;;6.30;99.90;;;;;;5090145;28;20081;-78
2022/10/11 02:46:59;;;;;;;8.88;1.88;;;6.30;99.90;;;;;;5090237;28;20517;-78
2022/10/11 02:49:27;;;;;;;11.70;2.30;;;6.30;99.90;;;;;;5073313;28;20032;-77
2022/10/11 02:51:55;;;;;;;8.18;1.77;;;6.30;99.90;;;;;;5089759;28;20028;-78
2022/10/11 02:54:20;;;;;;;4.47;1.45;;;6.30;99.90;;;;;;5089868;28;20036;-78
2022/10/11 02:56:46;;;;;;;11.38;1.52;;;6.20;99.90;;;;;;5094011;28;20088;-77
2022/10/11 02:59:11;;;;;;;7.47;1.92;;;6.20;99.90;;;;;;5100557;28;20032;-78
2022/10/11 03:01:37;;;;;;;8.82;1.63;;;6.20;99.90;;;;;;5090125;28;20493;-78
2022/10/11 03:04:02;;;;;;;9.90;1.77;;;6.20;99.90;;;;;;5090717;28;20074;-78
2022/10/11 03:06:28;;;;;;;9.07;1.70;;;6.10;99.90;;;;;;5094075;28;20032;-78
2022/10/11 03:08:53;;;;;;;6.10;1.60;;;6.10;99.90;;;;;;5094047;28;20089;-78
2022/10/11 03:11:19;;;;;;;6.90;1.80;;;6.00;99.90;;;;;;5093761;28;20040;-77
2022/10/11 03:13:44;;;;;;;15.00;2.10;;;6.00;99.90;;;;;;5093968;28;20504;-78
2022/10/11 03:16:10;;;;;;;10.93;1.73;;;6.00;99.90;;;;;;5093726;28;20036;-78
2022/10/11 03:18:36;;;;;;;6.97;1.55;;;6.00;99.90;;;;;;5093951;28;20043;-78
2022/10/11 03:21:01;;;;;;;8.75;1.55;;;6.10;99.90;;;;;;5093707;28;20089;-78
2022/10/11 03:23:27;;;;;;;10.65;1.73;;;6.00;99.90;;;;;;5093540;28;20035;-78
2022/10/11 03:25:52;;;;;;;8.77;1.73;;;6.00;99.90;;;;;;5093425;28;20051;-78
2022/10/11 03:28:18;;;;;;;6.28;1.20;;;6.00;99.90;;;;;;5093789;28;20123;-78
2022/10/11 03:30:47;;;;;;;6.50;1.55;;;6.00;99.90;;;;;;5076488;28;20035;-78
2022/10/11 03:33:12;;;;;;;6.38;1.63;;;6.10;99.90;;;;;;5093547;28;20072;-78
2022/10/11 03:35:39;;;;;;;9.45;1.40;;;6.00;99.90;;;;;;5093296;28;20086;-78
2022/10/11 03:38:05;;;;;;;7.35;1.92;;;6.00;99.90;;;;;;5093286;28;20505;-78
2022/10/11 03:40:31;;;;;;;15.25;2.08;;;5.90;99.90;;;;;;5076457;28;20115;-77
2022/10/11 03:42:56;;;;;;;12.07;1.90;;;5.90;99.90;;;;;;5076179;28;20039;-78
2022/10/11 03:45:22;;;;;;;7.55;1.63;;;5.90;99.90;;;;;;5076723;28;20063;-78
2022/10/11 03:47:49;;;;;;;6.43;1.33;;;5.90;99.90;;;;;;5094430;28;20028;-78
2022/10/11 03:50:14;;;;;;;3.97;1.20;;;6.00;99.90;;;;;;5092997;28;20090;-78
2022/10/11 03:52:40;;;;;;;8.43;1.70;;;6.00;99.90;;;;;;5092798;28;20087;-78
2022/10/11 03:55:06;;;;;;;6.40;1.63;;;6.10;99.90;;;;;;5093090;28;20461;-78
2022/10/11 03:57:31;;;;;;;4.97;1.30;;;6.10;99.90;;;;;;5103273;28;20501;-78
2022/10/11 03:59:57;;;;;;;11.35;1.63;;;6.10;99.90;;;;;;5098224;28;20035;-78
2022/10/11 04:02:23;;;;;;;8.98;1.63;;;6.20;99.90;;;;;;5092763;28;20445;-77
2022/10/11 04:04:48;;;;;;;7.47;1.42;;;6.20;99.90;;;;;;5092758;28;20043;-78
2022/10/11 04:07:14;;;;;;;8.98;1.58;;;6.20;99.90;;;;;;5107100;28;20154;-78
2022/10/11 04:09:39;;;;;;;10.77;2.10;;;6.30;99.90;;;;;;5094058;28;20067;-78
2022/10/11 04:12:05;;;;;;;7.72;1.40;;;6.40;99.90;;;;;;5092701;28;20032;-78
2022/10/11 04:14:30;;;;;;;11.25;2.40;;;6.40;99.90;;;;;;5092576;28;20512;-78
2022/10/11 04:16:56;;;;;;;8.38;1.40;;;6.40;99.90;;;;;;5091637;28;20047;-78
2022/10/11 04:19:21;;;;;;;11.35;2.15;;;6.40;99.90;;;;;;5092584;28;20089;-78
2022/10/11 04:21:47;;;;;;;8.88;1.83;;;6.40;99.90;;;;;;5092221;28;20051;-77
2022/10/11 04:24:13;;;;;;;9.90;2.05;;;6.40;99.90;;;;;;5092372;28;20036;-78
2022/10/11 04:26:39;;;;;;;5.15;1.52;;;6.40;99.90;;;;;;5092482;28;20050;-78
2022/10/11 04:29:04;;;;;;;10.48;1.55;;;6.40;99.90;;;;;;5092623;28;20081;-78
2022/10/11 04:31:30;;;;;;;7.88;1.80;;;6.40;99.90;;;;;;5092453;28;20032;-78
2022/10/11 04:33:56;;;;;;;15.60;2.05;;;6.30;99.90;;;;;;5092144;28;20116;-78
2022/10/11 04:36:22;;;;;;;9.23;1.98;;;6.30;99.90;;;;;;5092222;28;20040;-78
2022/10/11 04:38:48;;;;;;;10.07;2.00;;;6.40;99.90;;;;;;5092190;28;20043;-78
2022/10/11 04:41:15;;;;;;;8.10;1.52;;;6.30;99.90;;;;;;5091944;28;20032;-78
2022/10/11 04:43:40;;;;;;;8.27;1.52;;;6.40;99.90;;;;;;5092414;28;20440;-78
2022/10/11 04:46:06;;;;;;;7.18;1.70;;;6.30;99.90;;;;;;5092287;28;20036;-78
2022/10/11 04:48:32;;;;;;;6.70;1.63;;;6.20;99.90;;;;;;5092016;28;20073;-78
2022/10/11 04:50:58;;;;;;;10.13;1.95;;;6.20;99.90;;;;;;5091471;28;20611;-78
2022/10/11 04:53:23;;;;;;;6.35;1.77;;;6.20;99.90;;;;;;5091845;28;20044;-78
2022/10/11 04:56:18;;;;;;;12.52;2.05;;;6.20;99.90;;;;;;5091890;28;20036;-78
2022/10/11 04:58:46;;;;;;;5.82;1.55;;;6.20;99.90;;;;;;5083056;28;20585;-77
2022/10/11 05:01:13;;;;;;;10.05;2.22;;;6.20;99.90;;;;;;5091686;28;20040;-78
2022/10/11 05:03:38;;;;;;;5.60;1.60;;;6.10;99.90;;;;;;5091529;28;20035;-78
2022/10/11 05:06:04;;;;;;;10.63;1.67;;;6.10;99.90;;;;;;5091766;28;20044;-78
2022/10/11 05:08:30;;;;;;;9.60;1.98;;;6.10;99.90;;;;;;5091659;28;20039;-78
2022/10/11 05:11:02;;;;;;;10.35;1.75;;;6.20;99.90;;;;;;5091686;28;20028;-79
2022/10/11 05:13:29;;;;;;;12.30;2.17;;;6.20;99.90;;;;;;5091604;28;20044;-78
2022/10/11 05:15:56;;;;;;;11.43;2.17;;;6.30;99.90;;;;;;5091529;28;20040;-78
2022/10/11 05:18:22;;;;;;;11.95;1.88;;;6.20;99.90;;;;;;5091580;28;20040;-78
2022/10/11 05:20:48;;;;;;;6.00;1.77;;;6.30;99.90;;;;;;5091667;28;20036;-78
2022/10/11 05:23:14;;;;;;;9.60;1.70;;;6.30;99.90;;;;;;5091138;28;20512;-78
2022/10/11 05:25:40;;;;;;;10.73;2.25;;;6.30;99.90;;;;;;5091252;28;20038;-78
2022/10/11 05:28:06;;;;;;;9.80;1.77;;;6.30;99.90;;;;;;5091033;28;20119;-78
2022/10/11 05:30:31;;;;;;;12.18;2.10;;;6.40;99.90;;;;;;5091363;28;20136;-78
2022/10/11 05:32:57;;;;;;;6.90;1.60;;;6.40;99.90;;;;;;5091033;28;20036;-78
2022/10/11 05:35:22;;;;;;;8.25;1.70;;;6.40;99.90;;;;;;5091180;28;20101;-78
2022/10/11 05:37:48;;;;;;;9.32;1.80;;;6.40;99.90;;;;;;5091418;28;20059;-78
2022/10/11 05:40:14;;;;;;;9.27;2.25;;;6.40;99.90;;;;;;5091390;28;20035;-78
2022/10/11 05:42:39;;;;;;;11.52;1.98;;;6.40;99.90;;;;;;5091077;28;20027;-78
2022/10/11 05:45:05;;;;;;;12.10;2.30;;;6.40;99.90;;;;;;5091324;28;20036;-78
2022/10/11 05:47:32;;;;;;;8.68;1.90;;;6.40;99.90;;;;;;5073829;28;20070;-78
2022/10/11 05:49:57;;;;;;;9.70;1.92;;;6.40;99.90;;;;;;5091070;28;20039;-78
2022/10/11 05:52:23;;;;;;;10.13;1.90;;;6.40;99.90;;;;;;5090853;28;20036;-78
2022/10/11 05:54:48;;;;;;;15.13;2.53;;;6.50;99.90;;;;;;5090689;28;20543;-78
2022/10/11 05:57:14;;;;;;;12.02;2.00;;;6.40;99.90;;;;;;5098820;28;20047;-78
2022/10/11 05:59:40;;;;;;;8.05;2.30;;;6.30;99.90;;;;;;5097521;28;20043;-78
2022/10/11 06:02:06;;;;;;;9.18;2.17;;;6.40;99.90;;;;;;5090988;28;20040;-78
2022/10/11 06:04:36;;;;;;;8.90;1.67;;;6.40;99.90;;;;;;5090768;28;20036;-78
2022/10/11 06:07:02;;;;;;;10.50;1.90;;;6.40;99.90;;;;;;5073842;28;20074;-78
2022/10/11 06:09:28;;;;;;;11.82;2.30;;;6.30;99.90;;;;;;5090948;28;20072;-78
2022/10/11 06:11:54;;;;;;;7.57;1.73;;;6.40;99.90;;;;;;5073835;28;20480;-78
2022/10/11 06:14:19;;;;;;;12.15;2.10;;;6.40;99.90;;;;;;5090444;28;20040;-78
2022/10/11 06:16:45;;;;;;;10.95;2.10;;;6.40;99.90;;;;;;5090468;28;20454;-78
2022/10/11 06:19:11;;;;;;;9.95;1.75;;;6.40;99.90;;;;;;5090879;28;20500;-78
2022/10/11 06:21:37;;;;;;;5.13;1.83;;;6.40;99.90;;;;;;5090760;28;20412;-78
2022/10/11 06:24:03;;;;;;;8.23;1.80;;;6.40;99.90;;;;;;5090316;28;20040;-79
2022/10/11 06:26:29;;;;;;;8.60;1.60;;;6.40;99.90;;;;;;5090544;28;20036;-78
2022/10/11 06:28:55;;;;;;;7.13;1.52;;;6.50;99.90;;;;;;5090189;28;20062;-78
2022/10/11 06:31:20;;;;;;;9.52;1.75;;;6.50;99.90;;;;;;5090007;28;20036;-78
2022/10/11 06:33:46;;;;;;;11.70;2.10;;;6.50;99.90;;;;;;5090250;28;20043;-78
2022/10/11 06:36:13;;;;;;;9.30;2.20;;;6.60;99.90;;;;;;5090517;28;20119;-79
2022/10/11 06:38:39;;;;;;;10.82;2.03;;;6.60;99.90;;;;;;5090454;28;20041;-78
2022/10/11 06:41:16;;;;;;;9.93;1.98;;;6.60;99.90;;;;;;5095059;28;20054;-78
2022/10/11 06:43:42;;;;;;;8.93;1.92;;;6.70;99.90;;;;;;5094768;28;20047;-79
2022/10/11 06:46:07;;;;;;;8.88;1.90;;;6.80;99.90;;;;;;5094317;28;20044;-78
2022/10/11 06:48:33;;;;;;;7.38;2.72;;;6.80;99.90;;;;;;5094392;28;20390;-78
2022/10/11 06:50:59;;;;;;;9.88;1.73;;;6.80;99.90;;;;;;5093865;28;20044;-78
2022/10/11 06:53:26;;;;;;;7.63;1.85;;;6.90;99.90;;;;;;5077456;28;20501;-78
2022/10/11 06:55:51;;;;;;;8.55;2.42;;;7.00;99.90;;;;;;5094250;28;20071;-79
2022/10/11 06:58:17;;;;;;;13.32;2.20;;;7.00;99.90;;;;;;5108720;28;20465;-78
2022/10/11 07:00:42;;;;;;;9.98;2.58;;;7.10;99.90;;;;;;5094018;28;20111;-78
2022/10/11 07:03:08;;;;;;;7.30;1.73;;;7.10;99.90;;;;;;5094270;28;20068;-79
2022/10/11 07:05:33;;;;;;;9.73;1.77;;;7.20;99.90;;;;;;5094394;28;20068;-79
2022/10/11 07:08:00;;;;;;;9.48;1.92;;;7.30;99.90;;;;;;5077721;28;20040;-78
2022/10/11 07:10:26;;;;;;;10.35;2.22;;;7.40;99.90;;;;;;5094455;28;20036;-78
2022/10/11 07:12:52;;;;;;;15.60;2.40;;;7.50;99.90;;;;;;5077505;28;20119;-78
2022/10/11 07:15:17;;;;;;;11.43;1.95;;;7.60;99.90;;;;;;5094026;28;20040;-79
2022/10/11 07:17:43;;;;;;;8.15;1.77;;;7.60;99.90;;;;;;5094389;28;20089;-78
2022/10/11 07:20:09;;;;;;;9.00;1.92;;;7.80;99.90;;;;;;5094361;28;20048;-79
2022/10/11 07:22:34;;;;;;;10.70;1.90;;;7.90;99.90;;;;;;5094329;28;20115;-79
2022/10/11 07:25:00;;;;;;;12.48;2.28;;;7.90;99.90;;;;;;5094873;28;20094;-78
2022/10/11 07:27:25;;;;;;;11.07;2.00;;;8.10;99.90;;;;;;5094785;28;20036;-79
2022/10/11 07:29:51;;;;;;;7.78;2.13;;;8.20;99.90;;;;;;5095270;28;20386;-78
2022/10/11 07:32:16;;;;;;;11.07;1.67;;;8.30;99.90;;;;;;5093889;28;20048;-79
2022/10/11 07:34:42;;;;;;;10.30;2.53;;;8.40;99.90;;;;;;5094443;28;20037;-79
2022/10/11 07:37:08;;;;;;;15.07;2.08;;;8.50;99.90;;;;;;5095008;28;20436;-79
2022/10/11 07:39:34;;;;;;;8.50;1.92;;;8.60;99.90;;;;;;5094758;28;20036;-80
2022/10/11 07:41:59;;;;;;;9.65;2.08;;;8.80;99.90;;;;;;5094203;28;20043;-78
2022/10/11 07:44:25;;;;;;;10.05;2.53;;;8.90;99.90;;;;;;5094145;28;20607;-80
2022/10/11 07:46:51;;;;;;;9.98;2.22;;;9.00;99.90;;;;;;5097811;28;20036;-79
2022/10/11 07:49:16;;;;;;;13.27;1.88;;;9.10;99.90;;;;;;5093924;28;20124;-79
2022/10/11 07:51:42;;;;;;;9.60;1.98;;;9.20;99.90;;;;;;5094052;28;20070;-79
2022/10/11 07:54:07;;;;;;;15.65;2.25;;;9.30;99.90;;;;;;5093731;28;20043;-80
2022/10/11 07:56:33;;;;;;;7.22;1.58;;;9.40;99.90;;;;;;5096326;28;20044;-79
2022/10/11 07:59:02;;;;;;;9.05;2.15;;;9.40;99.90;;;;;;5106032;28;20040;-80
2022/10/11 08:01:28;;;;;;;10.80;2.10;;;9.50;99.90;;;;;;5076895;28;20040;-80
2022/10/11 08:03:55;;;;;;;10.35;2.00;;;9.60;99.90;;;;;;5093445;28;20036;-79
2022/10/11 08:06:26;;;;;;;11.40;2.25;;;9.80;99.90;;;;;;5093788;28;20044;-79
2022/10/11 08:08:51;;;;;;;12.23;2.08;;;9.90;99.90;;;;;;5076539;28;20051;-79
2022/10/11 08:11:23;;;;;;;7.13;1.80;;;10.10;99.90;;;;;;5093867;28;20043;-79
2022/10/11 08:13:48;;;;;;;7.95;2.50;;;10.20;99.90;;;;;;5094667;28;20594;-80
2022/10/11 08:16:14;;;;;;;9.98;1.52;;;10.20;99.90;;;;;;5093942;28;20048;-79
2022/10/11 08:18:40;;;;;;;11.35;1.80;;;10.10;99.90;;;;;;5093499;28;20055;-80
2022/10/11 08:21:11;;;;;;;8.50;1.85;;;10.10;99.90;;;;;;5093444;28;20493;-79
2022/10/11 08:23:36;;;;;;;11.90;1.90;;;10.20;99.90;;;;;;5093279;28;20740;-80
2022/10/11 08:26:03;;;;;;;12.45;2.13;;;10.30;99.90;;;;;;5093852;28;20127;-79
2022/10/11 08:28:28;;;;;;;10.25;1.92;;;10.40;99.90;;;;;;5094028;28;20036;-80
2022/10/11 08:30:54;;;;;;;12.57;2.28;;;10.50;99.90;;;;;;5093675;28;20036;-80
2022/10/11 08:33:21;;;;;;;11.23;1.70;;;10.60;99.90;;;;;;5093783;28;20412;-80
2022/10/11 08:35:47;;;;;;;11.02;1.95;;;10.70;99.90;;;;;;5093515;28;20043;-80
2022/10/11 08:38:13;;;;;;;10.55;1.90;;;10.80;99.90;;;;;;5093995;28;20130;-80
2022/10/11 08:40:49;;;;;;;9.48;2.58;;;10.90;99.90;;;;;;5093608;28;20102;-79
2022/10/11 08:43:28;;;;;;;12.25;1.77;;;11.00;99.90;;;;;;5094299;28;20444;-79
2022/10/11 08:45:57;;;;;;;8.38;1.65;;;11.10;99.90;;;;;;5093419;28;20048;-80
2022/10/11 08:48:40;;;;;;;13.60;2.55;;;11.10;99.90;;;;;;5093527;28;20086;-79
2022/10/11 08:51:29;;;;;;;9.45;1.88;;;11.20;99.90;;;;;;5092862;28;20047;-79
2022/10/11 08:54:01;;;;;;;11.50;1.98;;;11.30;99.90;;;;;;5093541;28;20048;-80
2022/10/11 08:56:28;;;;;;;11.70;2.10;;;11.40;99.90;;;;;;5094720;28;20142;-80
2022/10/11 08:59:16;;;;;;;11.70;2.65;;;11.50;99.90;;;;;;5106023;28;20032;-79
2022/10/11 09:01:48;;;;;;;11.07;1.92;;;11.60;99.90;;;;;;5092199;28;20032;-79
2022/10/11 09:04:17;;;;;;;12.25;1.95;;;11.80;99.90;;;;;;5093178;28;20040;-80
2022/10/11 09:07:10;;;;;;;8.57;1.63;;;11.90;99.90;;;;;;5093102;28;20512;-80
2022/10/11 09:10:22;;;;;;;13.38;2.08;;;12.00;99.90;;;;;;5092965;28;20032;-80
2022/10/11 09:13:08;;;;;;;13.65;1.90;;;12.00;99.90;;;;;;5092952;28;20123;-79
2022/10/11 09:15:40;;;;;;;11.18;2.38;;;12.10;99.90;;;;;;5093593;28;20047;-80
2022/10/11 09:18:26;;;;;;;9.80;1.90;;;12.10;99.90;;;;;;5092837;28;20115;-79
2022/10/11 09:21:07;;;;;;;9.55;1.98;;;12.10;99.90;;;;;;5092549;28;20509;-80
2022/10/11 09:23:57;;;;;;;12.27;2.20;;;12.30;99.90;;;;;;5092847;28;20046;-80
2022/10/11 09:26:31;;;;;;;8.95;1.80;;;12.40;99.90;;;;;;5092964;28;20443;-79
2022/10/11 09:29:30;;;;;;;11.57;1.90;;;12.50;99.90;;;;;;5075839;28;20122;-79
2022/10/11 09:31:57;;;;;;;9.68;1.80;;;12.60;99.90;;;;;;5082117;28;20066;-80
2022/10/11 09:34:31;;;;;;;9.90;2.10;;;12.70;99.90;;;;;;5092290;28;20047;-80
2022/10/11 09:37:01;;;;;;;10.90;2.10;;;12.80;99.90;;;;;;5092838;28;20425;-80
2022/10/11 09:39:31;;;;;;;10.15;2.00;;;12.80;99.90;;;;;;5092684;28;20542;-80
2022/10/11 09:42:02;;;;;;;13.38;2.70;;;12.70;99.90;;;;;;5075730;28;20118;-79
2022/10/11 09:44:39;;;;;;;11.27;1.92;;;12.70;99.90;;;;;;5093841;28;20522;-79
2022/10/11 09:47:09;;;;;;;7.75;1.73;;;12.70;99.90;;;;;;5093206;28;20043;-80
2022/10/11 09:49:41;;;;;;;11.32;2.00;;;12.80;99.90;;;;;;5092459;28;20044;-79
2022/10/11 09:52:15;;;;;;;11.75;1.73;;;13.00;99.90;;;;;;5092468;28;20042;-81
2022/10/11 09:54:44;;;;;;;11.00;1.75;;;13.20;99.90;;;;;;5092507;28;20044;-80
2022/10/11 09:57:28;;;;;;;7.22;1.80;;;13.30;99.90;;;;;;5099806;28;20031;-80
2022/10/11 10:00:10;;;;;;;14.77;2.60;;;13.40;99.90;;;;;;5096546;28;20045;-79
2022/10/11 10:03:01;;;;;;;9.90;2.03;;;13.40;99.90;;;;;;5092592;28;20043;-80
2022/10/11 10:05:28;;;;;;;10.90;2.30;;;13.30;99.90;;;;;;5087703;28;20048;-80
2022/10/11 10:08:08;;;;;;;9.85;2.13;;;13.30;99.90;;;;;;5075984;28;20052;-80
2022/10/11 10:10:34;;;;;;;10.70;1.90;;;13.40;99.90;;;;;;5094049;28;20096;-80
2022/10/11 10:13:02;;;;;;;12.95;2.55;;;13.50;99.90;;;;;;5075838;28;20443;-80
2022/10/11 10:15:31;;;;;;;14.88;2.13;;;13.60;99.90;;;;;;5091708;28;20040;-80
2022/10/11 10:17:57;;;;;;;11.98;2.45;;;13.70;99.90;;;;;;5092759;28;20059;-80
2022/10/11 10:20:24;;;;;;;9.55;1.88;;;13.80;99.90;;;;;;5076618;28;20040;-79
2022/10/11 10:22:51;;;;;;;8.15;2.03;;;13.90;99.90;;;;;;5091912;28;20032;-79
2022/10/11 10:25:34;;;;;;;9.52;1.95;;;14.00;99.90;;;;;;5091679;28;20048;-79
2022/10/11 10:28:15;;;;;;;11.13;2.22;;;14.10;99.90;;;;;;5091777;28;20059;-79
2022/10/11 10:30:53;;;;;;;7.97;1.77;;;14.10;99.90;;;;;;5074761;28;20042;-80
2022/10/11 10:33:19;;;;;;;8.05;2.00;;;14.00;99.90;;;;;;5092314;28;20527;-80
2022/10/11 10:35:50;;;;;;;8.23;1.52;;;14.10;99.90;;;;;;5075062;28;20513;-79
2022/10/11 10:38:25;;;;;;;11.75;2.03;;;14.10;99.90;;;;;;5091864;28;20115;-80
2022/10/11 10:40:57;;;;;;;12.63;2.47;;;14.20;99.90;;;;;;5075464;28;20581;-79
2022/10/11 10:43:27;;;;;;;9.57;1.80;;;14.30;99.90;;;;;;5091817;28;20524;-79
2022/10/11 10:46:11;;;;;;;9.77;2.00;;;14.40;99.90;;;;;;5092127;28;20040;-79
2022/10/11 10:48:47;;;;;;;7.05;1.60;;;14.40;99.90;;;;;;5091676;28;20618;-79
2022/10/11 10:51:22;;;;;;;11.15;2.20;;;14.40;99.90;;;;;;5092731;28;20493;-79
2022/10/11 10:54:18;;;;;;;10.05;1.80;;;14.40;99.90;;;;;;5092206;28;20474;-80
2022/10/11 10:56:53;;;;;;;8.55;1.83;;;14.40;99.90;;;;;;5095645;28;20035;-79
2022/10/11 10:59:48;;;;;;;8.77;2.20;;;14.50;99.90;;;;;;5101170;28;20046;-80
2022/10/11 11:02:26;;;;;;;14.50;1.90;;;14.70;99.90;;;;;;5086058;28;20044;-79
2022/10/11 11:05:17;;;;;;;15.80;1.63;;;15.00;99.90;;;;;;5091412;28;20043;-79
2022/10/11 11:07:50;;;;;;;9.93;2.13;;;15.10;99.90;;;;;;5091319;28;20044;-79
2022/10/11 11:10:20;;;;;;;9.83;1.73;;;15.10;99.90;;;;;;5091842;28;20458;-79
2022/10/11 11:13:04;;;;;;;9.52;1.60;;;15.00;99.90;;;;;;5091177;28;20058;-79
2022/10/11 11:15:40;;;;;;;6.55;1.95;;;14.80;99.90;;;;;;5091078;28;20036;-80
2022/10/11 11:18:20;;;;;;;6.68;1.38;;;14.70;99.90;;;;;;5092069;28;20436;-80
2022/10/11 11:21:03;;;;;;;7.75;1.35;;;14.50;99.90;;;;;;5091825;28;20460;-80
2022/10/11 11:24:05;;;;;;;8.25;1.48;;;14.40;99.90;;;;;;5091836;28;20040;-79
2022/10/11 11:26:59;;;;;;;9.35;1.50;;;14.30;99.90;;;;;;5090856;28;20109;-79
2022/10/11 11:29:58;;;;;;;9.48;1.70;;;14.10;99.90;;;;;;5095151;28;20064;-80
2022/10/11 11:32:39;;;;;;;10.32;1.65;;;14.10;99.90;;;;;;5089855;28;20080;-80
2022/10/11 11:35:23;;;;;;;5.45;1.50;;;14.00;99.90;;;;;;5078279;28;20040;-80
2022/10/11 11:37:56;;;;;;;11.00;1.60;;;14.00;99.90;;;;;;5095696;28;20031;-80
2022/10/11 11:40:34;;;;;;;5.55;1.20;;;13.90;99.90;;;;;;5095048;28;20533;-80
2022/10/11 11:43:31;;;;;;;5.25;1.40;;;13.80;99.90;;;;;;5095050;28;20040;-79
2022/10/11 11:46:05;;;;;;;9.25;2.20;;;13.80;99.90;;;;;;5092210;28;20532;-80
2022/10/11 11:48:31;;;;;;;;;;;13.70;99.90;;;;;;5096450;28;20055;-80
2022/10/11 11:51:04;;;;;;;9.30;1.70;;;13.70;99.90;;;;;;5094716;28;19923;-80
2022/10/11 11:54:00;;;;;;;7.22;1.60;;;13.70;99.90;;;;;;5077788;28;20085;-80
2022/10/11 11:56:40;;;;;;;10.73;1.67;;;13.60;99.90;;;;;;5095551;28;20409;-80
2022/10/11 11:59:17;;;;;;;8.63;1.50;;;13.70;99.90;;;;;;5105811;28;20524;-80
2022/10/11 12:02:11;;;;;;;5.38;1.63;;;13.70;99.90;;;;;;5078490;28;20032;-80
2022/10/11 12:04:42;;;;;;;7.25;1.55;;;13.70;99.90;;;;;;5093631;28;20125;-80
2022/10/11 12:07:22;;;;;;;8.45;1.77;;;13.70;99.90;;;;;;5094635;28;20047;-80
2022/10/11 12:09:51;;;;;;;10.75;1.90;;;13.70;99.90;;;;;;5095269;28;20416;-80
2022/10/11 12:12:36;;;;;;;6.75;1.40;;;13.70;99.90;;;;;;5077223;28;20128;-80
2022/10/11 12:15:24;;;;;;;9.00;1.52;;;13.70;99.90;;;;;;5094104;28;20048;-80
2022/10/11 12:18:04;;;;;;;10.38;1.70;;;13.80;99.90;;;;;;5095255;28;20543;-81
2022/10/11 12:20:35;;;;;;;8.32;1.65;;;13.80;99.90;;;;;;5077778;28;20028;-80
2022/10/11 12:23:21;;;;;;;9.35;1.70;;;13.80;99.90;;;;;;5094659;28;20039;-80
2022/10/11 12:26:30;;;;;;;7.30;1.65;;;14.10;99.90;;;;;;5094975;28;20097;-81
2022/10/11 12:29:20;;;;;;;8.48;1.58;;;14.70;99.90;;;;;;5088578;28;20534;-80
2022/10/11 12:32:09;;;;;;;5.47;1.70;;;15.30;99.90;;;;;;5093916;28;20035;-81
2022/10/11 12:34:42;;;;;;;18.20;1.80;;;15.60;99.90;;;;;;5077181;28;20094;-80
2022/10/11 12:37:16;;;;;;;7.47;1.45;;;15.80;99.90;;;;;;5093134;28;20081;-84
2022/10/11 12:39:55;;;;;;;9.57;1.58;;;16.10;99.90;;;;;;5093571;28;20032;-80
2022/10/11 12:42:35;;;;;;;9.55;1.73;;;16.10;99.90;;;;;;5076244;28;20505;-81
2022/10/11 12:45:09;;;;;;;8.68;1.30;;;15.80;99.90;;;;;;5093829;28;20040;-82
2022/10/11 12:48:07;;;;;;;10.60;1.60;;;15.60;99.90;;;;;;5095019;28;20120;-80
2022/10/11 12:50:36;;;;;;;7.95;1.63;;;15.40;99.90;;;;;;5096384;28;20048;-81
2022/10/11 12:53:19;;;;;;;7.63;2.40;;;15.20;99.90;;;;;;5095501;28;20051;-81
2022/10/11 12:55:49;;;;;;;7.03;1.50;;;15.10;99.90;;;;;;5094908;28;20040;-81
2022/10/11 12:58:37;;;;;;;8.25;1.60;;;15.00;99.90;;;;;;5109082;28;20140;-81
2022/10/11 13:01:03;;;;;;;9.73;1.60;;;14.90;99.90;;;;;;5094724;28;20529;-80
2022/10/11 13:03:55;;;;;;;9.60;1.88;;;14.90;99.90;;;;;;5095693;28;20070;-80
2022/10/11 13:06:34;;;;;;;11.45;1.85;;;14.80;99.90;;;;;;5093814;28;20086;-81
2022/10/11 13:09:16;;;;;;;9.07;1.58;;;14.80;99.90;;;;;;5094122;28;20036;-81
2022/10/11 13:11:51;;;;;;;13.40;1.90;;;14.90;99.90;;;;;;5093918;28;20040;-81
2022/10/11 13:14:21;;;;;;;7.95;1.58;;;14.90;99.90;;;;;;5093847;28;20040;-82